CheckWX is a tool to help pilots better visualize weather data.  It is not intended as a substitute for an official pre-flight weather briefing.

16:02:30 UTC

PASD TAF
Sand Point Airport
Sand Point, Alaska, USA
PASD 281730Z 2818/2918 VRB05KT P6SM SKC AMD LTD TO CLD VIS AND WIND

May-28@
18:00 UTC

May-28 @ 18:00 UTC

May-29@
18:00 UTC

May-29 @ 18:00 UTC

TAF PASD 281730Z 2818/2918 VRB05KT P6SM SKC AMD LTD TO CLD VIS AND WIND
Wind
  • Variable at 5 KTS
Cloud Levels
  • Clear skies